Time;durP1;ratioP1;P1;durP2;ratioP2;P2;SDS_P1;SDS_P2;PMS_P1;PMS_P2;Temp;Humidity;BMP_temperature;BMP_pressure;BME280_temperature;BME280_humidity;BME280_pressure;Samples;Min_cycle;Max_cycle;Signal;HPM_P1;HPM_P2
2023/01/29 00:00:21;;;;;;;;;9.00;9.00;;;;;5.31;70.05;102955.19;4990516;28;11490;-67
2023/01/29 00:02:47;;;;;;;;;13.25;9.00;;;;;5.33;69.84;102958.56;4992919;28;11516;-68
2023/01/29 00:05:14;;;;;;;;;11.00;11.00;;;;;5.34;69.70;102952.25;4999291;28;11496;-68
2023/01/29 00:07:53;;;;;;;;;14.50;12.00;;;;;5.36;69.91;102942.34;4974528;28;11579;-68
2023/01/29 00:10:19;;;;;;;;;11.25;9.50;;;;;5.37;69.83;102954.72;4984742;28;11686;-68
2023/01/29 00:12:46;;;;;;;;;16.50;14.25;;;;;5.36;69.73;102946.84;4987360;28;11491;-68
2023/01/29 00:15:12;;;;;;;;;15.00;15.00;;;;;5.34;69.79;102959.44;4989546;28;11540;-68
2023/01/29 00:17:39;;;;;;;;;18.00;14.25;;;;;5.29;69.89;102957.09;4987158;28;11543;-68
2023/01/29 00:20:06;;;;;;;;;15.25;11.25;;;;;5.32;69.40;102953.34;4988274;28;11583;-68
2023/01/29 00:22:32;;;;;;;;;15.25;12.75;;;;;5.33;69.79;102949.72;4981187;28;11521;-68
2023/01/29 00:24:59;;;;;;;;;15.50;15.50;;;;;5.35;69.69;102947.81;4989924;28;11499;-68
2023/01/29 00:27:25;;;;;;;;;14.50;12.75;;;;;5.33;69.76;102939.88;4991765;28;11523;-68
2023/01/29 00:30:14;;;;;;;;;14.25;14.00;;;;;5.31;69.76;102930.28;4995340;28;11514;-67
2023/01/29 00:32:39;;;;;;;;;18.50;13.00;;;;;5.27;69.44;102920.78;4989918;28;11542;-68
2023/01/29 00:35:07;;;;;;;;;15.25;15.25;;;;;5.26;69.63;102919.06;4990779;28;11508;-68
2023/01/29 00:37:34;;;;;;;;;18.00;15.00;;;;;5.24;69.63;102929.84;4986193;28;11562;-68
2023/01/29 00:40:00;;;;;;;;;16.25;15.75;;;;;5.26;69.66;102927.91;5006912;28;11601;-68
2023/01/29 00:45:12;;;;;;;;;14.00;14.00;;;;;5.23;69.94;102924.63;4995529;28;11562;-68
2023/01/29 00:47:39;;;;;;;;;12.50;10.25;;;;;5.27;69.97;102923.47;4988188;28;11486;-68
2023/01/29 00:50:08;;;;;;;;;14.50;13.75;;;;;5.27;69.50;102915.44;4988303;28;11525;-68
2023/01/29 00:52:35;;;;;;;;;21.50;15.00;;;;;5.29;69.52;102918.84;4979712;28;12217;-68
2023/01/29 00:55:03;;;;;;;;;13.00;12.50;;;;;5.26;69.84;102919.06;4992310;28;11633;-68
2023/01/29 00:57:31;;;;;;;;;16.25;13.25;;;;;5.30;69.72;102916.06;4995871;28;11579;-68
2023/01/29 00:59:58;;;;;;;;;13.50;13.50;;;;;5.30;69.92;102918.72;4986306;28;12216;-67
2023/01/29 01:05:18;;;;;;;;;12.50;11.00;;;;;5.36;70.19;102929.00;4987924;28;11488;-67
2023/01/29 01:07:52;;;;;;;;;15.00;13.50;;;;;5.37;69.99;102922.69;4980940;28;11488;-68
2023/01/29 01:10:28;;;;;;;;;18.00;16.50;;;;;5.32;69.50;102927.50;4992243;28;11496;-68
2023/01/29 01:13:01;;;;;;;;;16.25;11.25;;;;;5.26;69.78;102930.59;4985487;28;11578;-68
2023/01/29 01:15:30;;;;;;;;;21.75;19.25;;;;;5.29;70.00;102933.06;4989949;28;11504;-68
2023/01/29 01:17:59;;;;;;;;;18.75;17.00;;;;;5.28;69.54;102928.69;4982961;28;11544;-68
2023/01/29 01:20:28;;;;;;;;;14.25;11.00;;;;;5.32;69.62;102923.97;4991252;28;11532;-68
2023/01/29 01:22:55;;;;;;;;;14.25;13.00;;;;;5.35;69.64;102929.13;5004239;28;11498;-67
2023/01/29 01:25:23;;;;;;;;;18.50;15.00;;;;;5.38;69.70;102931.53;4989575;28;11519;-68
2023/01/29 01:27:54;;;;;;;;;12.00;12.00;;;;;5.41;69.49;102934.84;4997071;28;11497;-68
2023/01/29 01:30:22;;;;;;;;;11.00;10.50;;;;;5.45;69.64;102931.00;4984772;28;11537;-68
2023/01/29 01:32:49;;;;;;;;;16.75;15.25;;;;;5.47;70.17;102933.59;4984214;28;11456;-69
2023/01/29 01:35:15;;;;;;;;;15.75;14.00;;;;;5.46;69.56;102930.03;4989280;28;11518;-68
2023/01/29 01:37:42;;;;;;;;;21.00;16.75;;;;;5.45;69.83;102920.31;4984142;28;11538;-68
2023/01/29 01:40:35;;;;;;;;;18.00;18.00;;;;;5.40;69.80;102922.47;4989356;28;11524;-68
2023/01/29 01:43:01;;;;;;;;;17.25;13.50;;;;;5.39;69.74;102927.94;4980870;28;11516;-68
2023/01/29 01:45:35;;;;;;;;;16.50;16.50;;;;;5.38;70.16;102934.22;4988353;28;11514;-68
2023/01/29 01:48:14;;;;;;;;;17.00;17.00;;;;;5.36;70.18;102926.31;4985009;28;12215;-68
2023/01/29 01:50:46;;;;;;;;;16.75;14.25;;;;;5.36;69.80;102931.66;4990102;28;12216;-68
2023/01/29 01:53:18;;;;;;;;;16.25;13.75;;;;;5.39;69.81;102925.25;4997548;28;11489;-68
2023/01/29 01:55:51;;;;;;;;;15.75;15.75;;;;;5.41;69.73;102924.16;4992292;28;11526;-68
2023/01/29 01:58:28;;;;;;;;;17.75;14.00;;;;;5.43;69.62;102924.94;4988205;28;11536;-68
2023/01/29 02:00:55;;;;;;;;;20.75;18.50;;;;;5.41;69.60;102926.84;4979548;28;11526;-68
2023/01/29 02:11:50;;;;;;;;;23.50;20.75;;;;;5.35;69.84;102923.78;5005627;28;11537;-68
2023/01/29 02:14:17;;;;;;;;;28.50;19.50;;;;;5.36;70.00;102920.97;4989646;28;11581;-67
2023/01/29 02:16:44;;;;;;;;;23.25;20.25;;;;;5.36;69.85;102923.66;4987372;28;12302;-68
2023/01/29 02:19:25;;;;;;;;;21.50;19.00;;;;;5.36;69.41;102933.47;4981691;28;11523;-68
2023/01/29 02:22:10;;;;;;;;;23.00;19.75;;;;;5.37;69.65;102937.84;4982796;28;12208;-68
2023/01/29 02:24:58;;;;;;;;;22.00;20.25;;;;;5.34;70.44;102933.56;4987053;28;11564;-68
2023/01/29 02:27:47;;;;;;;;;18.75;18.50;;;;;5.32;70.10;102943.53;5002461;28;11606;-68
2023/01/29 02:30:53;;;;;;;;;25.25;19.75;;;;;5.31;70.45;102949.84;4985443;28;11557;-69
2023/01/29 02:33:32;;;;;;;;;24.00;21.25;;;;;5.28;70.00;102939.38;4976698;28;12223;-68
2023/01/29 02:36:28;;;;;;;;;24.00;19.00;;;;;5.29;70.27;102935.72;4971417;28;11623;-68
2023/01/29 02:39:04;;;;;;;;;22.75;20.25;;;;;5.32;69.92;102938.19;4984758;28;11641;-68
2023/01/29 02:41:50;;;;;;;;;21.50;15.00;;;;;5.34;70.39;102930.06;4987018;28;11844;-68
2023/01/29 02:44:35;;;;;;;;;20.00;19.50;;;;;5.35;70.12;102927.28;4973137;28;11525;-68
2023/01/29 02:47:14;;;;;;;;;24.50;20.50;;;;;5.34;70.43;102928.22;4978664;28;11591;-67
2023/01/29 02:50:02;;;;;;;;;18.50;17.00;;;;;5.33;69.77;102918.53;4986367;28;12272;-67
2023/01/29 02:52:55;;;;;;;;;19.00;19.00;;;;;5.34;70.38;102920.22;4989333;28;11500;-68
2023/01/29 02:55:30;;;;;;;;;23.75;21.00;;;;;5.33;69.89;102913.19;4989689;28;11547;-67
2023/01/29 02:58:10;;;;;;;;;27.75;21.50;;;;;5.31;70.28;102904.44;4977851;28;11551;-67
2023/01/29 03:00:43;;;;;;;;;26.50;22.25;;;;;5.31;69.99;102912.44;5000345;28;11536;-67
2023/01/29 03:03:16;;;;;;;;;24.50;19.00;;;;;5.30;69.93;102901.84;4985513;28;11704;-67
2023/01/29 03:05:52;;;;;;;;;31.00;27.25;;;;;5.24;69.90;102904.97;4997784;28;11607;-67
2023/01/29 03:08:35;;;;;;;;;30.00;27.50;;;;;5.21;69.86;102903.38;4987698;28;11587;-68
2023/01/29 03:11:05;;;;;;;;;26.00;23.25;;;;;5.23;70.36;102903.28;4984652;28;11593;-67
2023/01/29 03:13:42;;;;;;;;;31.75;29.25;;;;;5.23;70.21;102901.47;4992548;28;11642;-68
2023/01/29 03:16:21;;;;;;;;;35.50;31.50;;;;;5.17;69.87;102899.22;4987860;28;11662;-68
2023/01/29 03:18:56;;;;;;;;;32.50;29.75;;;;;5.15;70.41;102891.31;5008651;28;11589;-68
2023/01/29 03:21:59;;;;;;;;;38.25;32.50;;;;;5.10;70.33;102893.44;4992701;28;11596;-68
2023/01/29 03:33:27;;;;;;;;;34.25;29.25;;;;;5.11;69.80;102868.47;4992507;28;11628;-67
2023/01/29 03:36:12;;;;;;;;;34.50;30.00;;;;;5.11;70.03;102872.97;4999348;28;11572;-67
2023/01/29 03:38:39;;;;;;;;;31.50;30.25;;;;;5.08;69.98;102874.03;4993906;28;11591;-67
2023/01/29 03:41:13;;;;;;;;;36.00;27.50;;;;;5.10;70.12;102863.22;5011469;28;11600;-67
2023/01/29 03:43:53;;;;;;;;;33.00;31.00;;;;;5.12;70.52;102866.66;4981280;28;11733;-67
2023/01/29 03:46:53;;;;;;;;;28.50;26.25;;;;;5.13;70.38;102863.00;4985442;28;11658;-67
2023/01/29 03:49:33;;;;;;;;;34.00;33.75;;;;;5.10;70.37;102861.41;4974703;28;11573;-67
2023/01/29 03:52:17;;;;;;;;;38.50;33.75;;;;;5.06;70.42;102859.06;4985515;28;11683;-66
2023/01/29 03:55:00;;;;;;;;;35.75;27.00;;;;;5.08;70.63;102873.16;4992576;28;11684;-67
2023/01/29 03:57:37;;;;;;;;;28.00;27.75;;;;;5.08;70.49;102867.84;5003955;28;11591;-67
2023/01/29 04:00:06;;;;;;;;;31.50;25.75;;;;;5.08;71.12;102867.84;4992323;28;11586;-66
2023/01/29 04:02:50;;;;;;;;;32.75;28.00;;;;;5.10;70.45;102860.56;4985368;28;11771;-67
2023/01/29 04:05:26;;;;;;;;;28.00;26.00;;;;;5.11;70.49;102855.13;4987343;28;11603;-68
2023/01/29 04:08:11;;;;;;;;;42.25;31.00;;;;;5.09;70.47;102858.84;4994063;28;11583;-67
2023/01/29 04:10:42;;;;;;;;;35.25;26.75;;;;;5.07;71.12;102855.47;4998398;28;11596;-67
2023/01/29 04:13:13;;;;;;;;;23.75;22.50;;;;;5.09;70.87;102851.69;4988774;28;11716;-66
2023/01/29 04:16:05;;;;;;;;;31.25;28.00;;;;;5.10;70.76;102845.38;5009263;28;11589;-68
2023/01/29 04:18:55;;;;;;;;;30.75;29.00;;;;;5.06;70.95;102851.06;5001684;28;11598;-68
2023/01/29 04:21:30;;;;;;;;;28.75;23.00;;;;;5.06;70.98;102845.72;4989915;28;11720;-68
2023/01/29 04:23:58;;;;;;;;;34.00;31.75;;;;;5.06;70.86;102838.56;4983879;28;11570;-69
2023/01/29 04:26:46;;;;;;;;;36.50;31.50;;;;;5.05;71.07;102831.53;4999137;28;11611;-68
2023/01/29 04:29:38;;;;;;;;;32.75;30.00;;;;;5.00;71.09;102827.47;4980126;28;11616;-67
2023/01/29 04:32:33;;;;;;;;;38.75;38.25;;;;;4.98;70.81;102832.91;4985442;28;11580;-67
2023/01/29 04:35:24;;;;;;;;;40.75;33.75;;;;;4.92;71.23;102828.88;4981804;28;11565;-68
2023/01/29 04:38:10;;;;;;;;;30.00;27.00;;;;;4.92;70.90;102831.53;4988190;28;11594;-67
2023/01/29 04:40:52;;;;;;;;;38.75;33.00;;;;;4.91;71.32;102821.84;4982794;28;11613;-68
2023/01/29 04:43:28;;;;;;;;;30.25;26.50;;;;;4.87;70.97;102816.84;4985222;28;12383;-68
2023/01/29 04:46:18;;;;;;;;;40.25;32.00;;;;;4.87;71.25;102806.16;4981029;28;11579;-68
2023/01/29 04:49:03;;;;;;;;;37.75;34.75;;;;;4.89;70.81;102799.72;4990808;28;11580;-67
2023/01/29 04:51:48;;;;;;;;;36.50;32.00;;;;;4.90;70.97;102801.47;4990219;28;11640;-68
2023/01/29 04:54:27;;;;;;;;;32.50;29.75;;;;;4.92;70.65;102804.00;4983288;28;11610;-68
2023/01/29 04:57:05;;;;;;;;;32.00;30.50;;;;;4.88;70.97;102803.38;4988306;28;11575;-67
2023/01/29 04:59:39;;;;;;;;;38.50;33.00;;;;;4.90;70.90;102798.78;4996921;28;11647;-67
2023/01/29 05:02:08;;;;;;;;;40.50;31.50;;;;;4.86;71.05;102794.63;4996228;28;11697;-67
2023/01/29 05:04:39;;;;;;;;;32.75;28.50;;;;;4.91;71.03;102791.63;4990882;28;11555;-67
2023/01/29 05:07:12;;;;;;;;;30.50;28.75;;;;;4.92;70.51;102796.84;4990888;28;11589;-67
2023/01/29 05:09:41;;;;;;;;;31.50;31.00;;;;;4.94;70.41;102797.63;5000095;28;11603;-67
2023/01/29 05:12:11;;;;;;;;;41.25;37.25;;;;;4.94;70.78;102804.72;4988979;28;11649;-68
2023/01/29 05:14:41;;;;;;;;;33.75;32.75;;;;;4.94;70.83;102802.06;4994672;28;11622;-67
2023/01/29 05:17:13;;;;;;;;;36.25;30.00;;;;;4.97;70.75;102820.53;5033176;22;11647;-64
2023/01/29 05:19:40;;;;;;;;;32.00;29.75;;;;;4.96;70.70;102801.00;5005870;28;11594;-66
2023/01/29 05:22:10;;;;;;;;;45.50;40.50;;;;;4.96;70.16;102800.16;5010667;28;11561;-64
2023/01/29 05:24:36;;;;;;;;;41.75;34.00;;;;;4.95;70.62;102788.63;5004913;28;11653;-65
2023/01/29 05:29:48;;;;;;;;;42.50;33.25;;;;;4.90;70.50;102789.91;5004202;28;11621;-65
2023/01/29 05:32:15;;;;;;;;;33.75;32.50;;;;;4.90;70.73;102785.44;5019560;28;12231;-64
2023/01/29 05:34:41;;;;;;;;;42.50;40.25;;;;;4.90;70.81;102789.91;5010341;28;11585;-65
2023/01/29 05:37:09;;;;;;;;;38.00;33.00;;;;;4.94;70.93;102792.28;5005917;28;11583;-65
2023/01/29 05:39:35;;;;;;;;;32.00;29.00;;;;;4.98;70.96;102798.22;5015530;28;11533;-66
2023/01/29 05:42:02;;;;;;;;;43.00;40.25;;;;;4.96;70.39;102801.00;5011547;28;11690;-65
2023/01/29 05:44:28;;;;;;;;;39.00;36.50;;;;;4.91;70.45;102797.81;5012867;28;11586;-65
2023/01/29 05:46:55;;;;;;;;;43.00;36.25;;;;;4.88;70.59;102794.50;5012792;28;11752;-66
2023/01/29 05:49:21;;;;;;;;;41.25;34.00;;;;;4.91;71.23;102788.97;5004022;28;11591;-67
2023/01/29 05:51:48;;;;;;;;;47.50;38.25;;;;;4.92;70.62;102782.66;5016072;28;11591;-64
2023/01/29 05:54:15;;;;;;;;;44.25;34.75;;;;;4.91;70.81;102770.28;5009204;28;12359;-64
2023/01/29 05:56:41;;;;;;;;;39.00;37.50;;;;;4.86;70.56;102769.75;5001771;28;11571;-65
2023/01/29 05:59:08;;;;;;;;;48.00;41.50;;;;;4.89;71.06;102772.19;5008980;28;11584;-65
2023/01/29 06:01:34;;;;;;;;;39.50;33.75;;;;;4.89;70.91;102762.38;5008717;28;11626;-66
2023/01/29 06:04:01;;;;;;;;;37.25;34.75;;;;;4.90;70.64;102755.22;5009392;28;11588;-65
2023/01/29 06:06:27;;;;;;;;;42.25;36.50;;;;;4.88;70.81;102751.81;5012116;28;12286;-65
2023/01/29 06:08:55;;;;;;;;;39.00;32.75;;;;;4.90;71.14;102755.22;5008705;28;11733;-65
2023/01/29 06:11:21;;;;;;;;;46.75;41.25;;;;;4.90;70.86;102756.09;5010724;28;11581;-65
2023/01/29 06:13:48;;;;;;;;;44.00;37.00;;;;;4.91;71.65;102752.47;5014498;28;11791;-65
2023/01/29 06:16:14;;;;;;;;;43.00;36.25;;;;;4.94;71.53;102749.56;5011001;28;11542;-65
2023/01/29 06:18:41;;;;;;;;;38.50;36.50;;;;;4.91;71.03;102735.59;5017341;28;12266;-66
2023/01/29 06:21:11;;;;;;;;;77.00;59.50;;;;;4.91;71.09;102739.13;5001979;28;11596;-66
2023/01/29 06:23:37;;;;;;;;;54.50;46.75;;;;;4.88;71.05;102735.81;5011001;28;11575;-65
2023/01/29 06:26:14;;;;;;;;;44.75;40.50;;;;;4.86;71.15;102749.28;5004408;28;11700;-65
2023/01/29 06:28:41;;;;;;;;;34.75;33.75;;;;;4.89;71.34;102745.50;5005317;28;11655;-66
2023/01/29 06:31:07;;;;;;;;;46.50;37.25;;;;;4.90;71.33;102741.88;5017603;28;11554;-65
2023/01/29 06:33:54;;;;;;;;;36.00;34.50;;;;;4.91;71.47;102744.44;5003960;28;11592;-65
2023/01/29 06:36:20;;;;;;;;;39.75;33.50;;;;;4.93;71.45;102750.50;5012448;28;11578;-64
2023/01/29 06:38:47;;;;;;;;;40.50;35.00;;;;;4.96;70.94;102741.44;5013637;28;11576;-65
2023/01/29 06:41:17;;;;;;;;;45.75;38.50;;;;;4.95;70.86;102748.59;5014218;28;11695;-66
2023/01/29 06:43:44;;;;;;;;;27.75;25.50;;;;;4.97;71.11;102737.81;5014343;28;11580;-66
2023/01/29 06:46:11;;;;;;;;;43.75;39.00;;;;;4.96;71.26;102736.97;5012982;28;11603;-66
2023/01/29 06:48:37;;;;;;;;;31.00;27.00;;;;;4.99;71.16;102748.38;5016958;28;11646;-65
2023/01/29 06:51:09;;;;;;;;;39.50;27.75;;;;;5.01;71.44;102741.97;5015218;28;11598;-66
2023/01/29 06:53:37;;;;;;;;;38.00;33.75;;;;;4.98;71.20;102731.50;5011244;28;11658;-67
2023/01/29 06:56:04;;;;;;;;;38.75;32.25;;;;;4.98;70.89;102728.81;5015352;28;11672;-67
2023/01/29 06:58:31;;;;;;;;;38.00;36.25;;;;;4.97;71.09;102730.66;5021028;28;11566;-66
2023/01/29 07:01:09;;;;;;;;;49.50;34.25;;;;;4.91;71.19;102725.78;5009151;28;11574;-65
2023/01/29 07:03:41;;;;;;;;;36.75;33.75;;;;;4.90;71.37;102734.75;5013325;28;11523;-66
2023/01/29 07:06:08;;;;;;;;;35.50;35.00;;;;;4.89;71.17;102732.16;5011247;28;11568;-67
2023/01/29 07:08:36;;;;;;;;;37.25;34.50;;;;;4.90;71.40;102729.41;5010518;28;11807;-66
2023/01/29 07:11:03;;;;;;;;;42.00;35.50;;;;;4.92;71.07;102730.13;5018188;28;12278;-65
2023/01/29 07:13:30;;;;;;;;;33.75;30.25;;;;;4.94;71.54;102740.69;5013164;28;11592;-67
2023/01/29 07:16:00;;;;;;;;;35.50;32.75;;;;;4.94;71.43;102744.25;5009396;28;11561;-67
2023/01/29 07:18:28;;;;;;;;;40.25;37.50;;;;;4.95;71.50;102742.41;5022826;28;11545;-67
2023/01/29 07:20:55;;;;;;;;;42.00;37.75;;;;;4.90;71.26;102748.09;5013502;28;11695;-67
2023/01/29 07:23:21;;;;;;;;;41.25;35.00;;;;;4.90;71.50;102747.22;5013123;28;12285;-66
2023/01/29 07:25:51;;;;;;;;;35.25;31.25;;;;;4.93;71.42;102745.19;5015211;28;11579;-64
2023/01/29 07:28:19;;;;;;;;;41.75;35.00;;;;;4.96;71.41;102744.97;5018795;28;11607;-66
2023/01/29 07:30:46;;;;;;;;;32.25;32.25;;;;;5.00;71.19;102744.75;5013969;28;11602;-65
2023/01/29 07:33:12;;;;;;;;;37.25;33.00;;;;;4.96;71.24;102741.44;5013258;28;12759;-65
2023/01/29 07:35:41;;;;;;;;;48.25;38.00;;;;;4.99;71.40;102729.72;5014046;28;11558;-67
2023/01/29 07:38:09;;;;;;;;;48.00;38.50;;;;;4.94;71.20;102716.66;5008405;28;12321;-66
2023/01/29 07:40:36;;;;;;;;;39.50;38.00;;;;;4.90;71.24;102725.84;5013594;28;11711;-65
2023/01/29 07:43:05;;;;;;;;;40.50;34.50;;;;;4.93;71.37;102725.66;5026166;28;11652;-66
2023/01/29 07:45:34;;;;;;;;;48.25;39.00;;;;;4.90;71.44;102728.53;5006831;28;11597;-66
2023/01/29 07:48:00;;;;;;;;;40.75;35.25;;;;;4.90;70.67;102712.53;5022833;28;11582;-65
2023/01/29 07:50:27;;;;;;;;;44.25;40.25;;;;;4.86;71.81;102709.25;5016129;28;11655;-67
2023/01/29 07:52:53;;;;;;;;;31.75;31.25;;;;;4.88;71.38;102701.97;5007513;28;12465;-66
2023/01/29 07:55:20;;;;;;;;;45.75;37.00;;;;;4.90;71.50;102696.50;5004763;28;11713;-66
2023/01/29 07:57:47;;;;;;;;;42.50;38.75;;;;;4.85;71.11;102696.00;5012072;28;11623;-66
2023/01/29 08:00:14;;;;;;;;;40.25;37.25;;;;;4.84;71.68;102694.31;5009437;28;11610;-65
2023/01/29 08:02:41;;;;;;;;;40.75;39.50;;;;;4.81;72.07;102695.38;5008599;28;12309;-66
2023/01/29 08:05:08;;;;;;;;;47.25;42.25;;;;;4.77;71.74;102693.03;5011629;28;11621;-66
2023/01/29 08:07:34;;;;;;;;;35.25;32.50;;;;;4.76;71.77;102686.00;5010512;28;11558;-66
2023/01/29 08:10:00;;;;;;;;;40.50;32.00;;;;;4.85;71.66;102696.84;5014319;28;11580;-67
2023/01/29 08:12:27;;;;;;;;;44.00;41.00;;;;;4.85;71.41;102696.00;5014849;28;11705;-65
2023/01/29 08:14:53;;;;;;;;;56.25;44.00;;;;;4.85;71.79;102690.66;5007761;28;11620;-66
2023/01/29 08:17:20;;;;;;;;;38.00;33.50;;;;;4.86;71.62;102695.91;5011781;28;11601;-66
2023/01/29 08:19:46;;;;;;;;;38.75;36.25;;;;;4.88;71.79;102690.44;5009544;28;11612;-66
2023/01/29 08:22:15;;;;;;;;;48.00;36.75;;;;;4.88;71.35;102685.97;5014731;28;11590;-65
2023/01/29 08:24:42;;;;;;;;;44.50;38.00;;;;;4.87;71.34;102691.41;5011495;28;11573;-65
2023/01/29 08:27:25;;;;;;;;;45.00;39.00;;;;;4.89;71.36;102693.00;5015405;28;11556;-65
2023/01/29 08:29:51;;;;;;;;;44.25;37.25;;;;;4.88;71.28;102690.44;5003755;28;11568;-66
2023/01/29 08:32:18;;;;;;;;;38.25;35.25;;;;;4.87;71.57;102678.06;5010342;28;11714;-67
2023/01/29 08:34:44;;;;;;;;;44.50;38.00;;;;;4.87;71.33;102678.06;5011179;28;11643;-66
2023/01/29 08:37:11;;;;;;;;;39.75;33.25;;;;;4.92;71.54;102679.44;5015100;28;11580;-65
2023/01/29 08:39:37;;;;;;;;;40.00;36.00;;;;;4.95;71.29;102673.88;5011817;28;11678;-65
2023/01/29 08:42:04;;;;;;;;;41.75;37.50;;;;;4.95;71.65;102676.53;5006985;28;11633;-64
2023/01/29 08:44:30;;;;;;;;;45.00;36.00;;;;;4.92;71.50;102671.44;5008430;28;11609;-64
2023/01/29 08:46:56;;;;;;;;;44.25;39.00;;;;;4.90;71.58;102670.72;5008727;28;11697;-65
2023/01/29 08:49:23;;;;;;;;;38.50;35.75;;;;;4.90;72.17;102670.72;5007312;28;11568;-66
2023/01/29 08:51:52;;;;;;;;;36.50;34.00;;;;;4.92;72.18;102667.91;5009858;28;12637;-65
2023/01/29 08:54:19;;;;;;;;;43.00;37.00;;;;;4.95;71.68;102659.69;5006877;28;11553;-66
2023/01/29 08:56:45;;;;;;;;;39.50;37.75;;;;;4.97;72.04;102666.59;5011830;28;11565;-66
2023/01/29 08:59:12;;;;;;;;;38.75;33.25;;;;;5.00;71.31;102665.53;5011342;28;11576;-65
2023/01/29 09:01:38;;;;;;;;;33.75;33.25;;;;;5.04;71.67;102663.50;5013058;28;12255;-66
2023/01/29 09:04:05;;;;;;;;;53.50;45.00;;;;;4.98;71.39;102654.09;5011005;28;11575;-65
2023/01/29 09:06:31;;;;;;;;;43.25;38.75;;;;;4.99;71.46;102655.81;5012945;28;11577;-65
2023/01/29 09:08:57;;;;;;;;;40.00;33.50;;;;;4.99;71.46;102653.16;5010633;28;11571;-64
2023/01/29 09:11:24;;;;;;;;;35.25;32.00;;;;;5.02;71.84;102655.56;5009776;28;11633;-66
2023/01/29 09:13:50;;;;;;;;;38.75;33.50;;;;;5.04;71.93;102655.47;5008229;28;11672;-65
2023/01/29 09:16:17;;;;;;;;;42.00;35.25;;;;;5.09;71.76;102654.16;5007836;28;11586;-63
2023/01/29 09:18:43;;;;;;;;;44.50;33.75;;;;;5.05;71.41;102658.03;5003443;28;12447;-64
2023/01/29 09:21:10;;;;;;;;;45.75;36.75;;;;;5.08;71.62;102656.97;4998252;28;11687;-66
2023/01/29 09:23:36;;;;;;;;;42.75;37.00;;;;;5.02;71.40;102655.56;5009752;28;11577;-63
2023/01/29 09:26:03;;;;;;;;;38.00;33.50;;;;;5.02;71.41;102660.06;5010453;28;11646;-64
2023/01/29 09:28:29;;;;;;;;;45.25;40.50;;;;;5.02;71.80;102663.59;5010812;28;12326;-65
2023/01/29 09:31:00;;;;;;;;;39.00;31.75;;;;;5.00;72.05;102651.34;5010907;28;11686;-65
2023/01/29 09:33:27;;;;;;;;;51.00;40.00;;;;;5.03;72.04;102662.66;4999331;28;11689;-66
2023/01/29 09:35:53;;;;;;;;;38.50;35.00;;;;;5.08;72.98;102654.28;5006139;28;11636;-64
2023/01/29 09:38:20;;;;;;;;;45.75;38.25;;;;;5.08;72.33;102665.81;5008220;28;11579;-65
2023/01/29 09:40:57;;;;;;;;;38.00;31.00;;;;;5.12;72.15;102658.44;5007489;28;11612;-64
2023/01/29 09:43:42;;;;;;;;;35.25;28.75;;;;;5.11;72.35;102660.25;5001680;28;11591;-64
2023/01/29 09:46:19;;;;;;;;;38.75;28.75;;;;;5.14;71.90;102654.66;5003582;28;11689;-65
2023/01/29 09:48:49;;;;;;;;;43.00;40.50;;;;;5.14;72.31;102653.81;4996445;28;11719;-64
2023/01/29 09:51:49;;;;;;;;;38.00;32.50;;;;;5.19;72.14;102647.19;5004897;28;11556;-65
2023/01/29 09:54:29;;;;;;;;;40.00;35.75;;;;;5.19;72.48;102643.69;5003184;28;11657;-64
2023/01/29 09:56:56;;;;;;;;;48.00;40.25;;;;;5.17;72.33;102637.56;4997855;28;12374;-65
2023/01/29 09:59:26;;;;;;;;;36.75;33.25;;;;;5.18;72.36;102633.94;4991556;28;11708;-66
2023/01/29 10:02:02;;;;;;;;;38.25;35.75;;;;;5.18;72.15;102633.94;5003570;28;11575;-66
2023/01/29 10:04:50;;;;;;;;;35.50;30.75;;;;;5.25;72.58;102640.53;5005685;28;11613;-65
2023/01/29 10:07:48;;;;;;;;;42.50;35.25;;;;;5.16;72.33;102620.72;5010760;28;11564;-65
2023/01/29 10:10:42;;;;;;;;;46.25;37.75;;;;;5.26;72.76;102626.19;5005165;28;11602;-66
2023/01/29 10:13:28;;;;;;;;;46.00;40.75;;;;;5.26;72.43;102620.84;5000302;28;11698;-66
2023/01/29 10:16:17;;;;;;;;;38.25;36.50;;;;;5.25;72.85;102613.81;5002589;28;11680;-64
2023/01/29 10:18:43;;;;;;;;;31.75;29.50;;;;;5.30;72.79;102619.66;4998888;28;11597;-66
2023/01/29 10:21:36;;;;;;;;;42.75;36.50;;;;;5.30;72.64;102611.66;5003130;28;11604;-66
2023/01/29 10:24:11;;;;;;;;;32.50;28.75;;;;;5.35;73.36;102614.00;5007241;28;11710;-66
2023/01/29 10:26:39;;;;;;;;;35.50;30.75;;;;;5.43;72.93;102612.44;5010407;28;11714;-66
2023/01/29 10:29:07;;;;;;;;;46.75;40.00;;;;;5.42;72.73;102610.72;5009993;28;11651;-67
2023/01/29 10:31:38;;;;;;;;;42.75;36.25;;;;;5.36;72.51;102608.53;5009174;28;11580;-67
2023/01/29 10:34:11;;;;;;;;;46.00;36.75;;;;;5.34;72.65;102613.13;5009086;28;11562;-66
2023/01/29 10:36:44;;;;;;;;;49.25;39.25;;;;;5.30;73.19;102605.47;5003073;28;11677;-66
2023/01/29 10:39:17;;;;;;;;;36.25;31.75;;;;;5.34;73.21;102606.94;4999260;28;11607;-65
2023/01/29 10:42:10;;;;;;;;;34.25;33.00;;;;;5.40;73.19;102599.31;4991034;28;11594;-66
2023/01/29 10:44:49;;;;;;;;;45.50;38.00;;;;;5.69;74.12;102599.75;4994236;28;12403;-66
2023/01/29 10:47:31;;;;;;;;;50.00;37.50;;;;;5.70;73.21;102600.59;5004710;28;11593;-65
2023/01/29 10:50:24;;;;;;;;;44.00;35.50;;;;;5.61;72.64;102599.47;5003123;28;11680;-66
2023/01/29 10:53:06;;;;;;;;;47.00;41.00;;;;;5.47;72.49;102599.72;5007419;28;11679;-66
2023/01/29 10:55:51;;;;;;;;;47.25;36.25;;;;;5.46;72.44;102595.31;5007502;28;11595;-66
2023/01/29 10:58:40;;;;;;;;;51.00;34.75;;;;;5.46;72.62;102585.47;5025105;28;11560;-66
2023/01/29 11:01:08;;;;;;;;;36.75;31.25;;;;;5.44;72.88;102582.09;5000568;28;11694;-67
2023/01/29 11:03:35;;;;;;;;;50.75;36.75;;;;;5.46;73.18;102589.97;5003926;28;11585;-67
2023/01/29 11:06:23;;;;;;;;;27.75;25.25;;;;;5.64;77.29;102593.06;5004715;28;11599;-62
2023/01/29 11:09:04;;;;;;;;;41.25;36.75;;;;;6.21;77.26;102575.25;5001527;28;11526;-66
2023/01/29 11:11:40;;;;;;;;;41.50;35.50;;;;;6.06;73.71;102562.13;4998603;28;12346;-67
2023/01/29 11:14:13;;;;;;;;;44.50;37.75;;;;;5.92;72.83;102571.25;5000706;28;11727;-68
2023/01/29 11:16:43;;;;;;;;;46.50;42.50;;;;;5.81;72.75;102559.69;5025639;28;11562;-67
2023/01/29 11:19:10;;;;;;;;;43.25;39.75;;;;;5.65;72.92;102552.84;5006269;28;11666;-68
2023/01/29 11:21:56;;;;;;;;;52.50;42.50;;;;;5.57;72.78;102543.75;5013830;28;11674;-69
2023/01/29 11:24:23;;;;;;;;;47.25;38.25;;;;;5.56;73.04;102544.72;5000645;28;11661;-69
2023/01/29 11:26:53;;;;;;;;;48.00;42.00;;;;;5.48;72.99;102545.31;5012296;28;11699;-69
2023/01/29 11:29:38;;;;;;;;;44.25;41.00;;;;;5.49;73.41;102538.16;5010892;28;11604;-68
2023/01/29 11:32:10;;;;;;;;;38.25;35.00;;;;;5.51;73.95;102541.53;5013509;28;11693;-68
2023/01/29 11:35:02;;;;;;;;;45.00;37.00;;;;;5.50;73.17;102543.34;5010071;28;11614;-69
2023/01/29 11:37:31;;;;;;;;;42.75;39.75;;;;;5.53;73.45;102542.28;5008362;28;11713;-68
2023/01/29 11:39:58;;;;;;;;;43.50;38.00;;;;;5.50;73.52;102543.34;5014568;28;11703;-67
2023/01/29 11:42:30;;;;;;;;;39.50;34.25;;;;;5.49;73.62;102539.00;5010928;28;11590;-69
2023/01/29 11:44:56;;;;;;;;;47.00;42.25;;;;;5.49;73.44;102528.31;5009832;28;11632;-68
2023/01/29 11:47:28;;;;;;;;;48.00;37.75;;;;;5.53;73.30;102534.28;5011644;28;11559;-68
2023/01/29 11:49:57;;;;;;;;;50.25;41.50;;;;;5.49;73.43;102519.44;5011504;28;11696;-67
2023/01/29 11:52:34;;;;;;;;;54.00;46.50;;;;;5.44;73.02;102523.34;5028577;28;12272;-68
2023/01/29 11:55:29;;;;;;;;;40.50;35.50;;;;;5.40;74.19;102510.34;5012625;28;11575;-68
2023/01/29 11:58:31;;;;;;;;;43.50;40.75;;;;;5.49;73.32;102500.75;5014780;28;11636;-69
2023/01/29 12:00:59;;;;;;;;;46.75;42.00;;;;;5.52;73.51;102505.88;5011914;28;11698;-68
2023/01/29 12:03:42;;;;;;;;;46.50;40.25;;;;;5.51;73.34;102491.66;5013755;28;11608;-66
2023/01/29 12:06:27;;;;;;;;;60.25;44.75;;;;;5.48;73.32;102497.25;5009013;28;12287;-66
2023/01/29 12:08:56;;;;;;;;;41.25;39.75;;;;;5.41;74.17;102501.34;5011628;28;11579;-70